Time;durP1;ratioP1;P1;durP2;ratioP2;P2;SDS_P1;SDS_P2;PMS_P1;PMS_P2;Temp;Humidity;BMP_temperature;BMP_pressure;BME280_temperature;BME280_humidity;BME280_pressure;Samples;Min_cycle;Max_cycle;Signal;HPM_P1;HPM_P2
2021/01/19 00:02:12;;;;;;;42.55;12.52;;;27.10;77.60;;;;;;6341316;22;19987;-90
2021/01/19 00:04:44;;;;;;;33.47;10.88;;;27.00;78.10;;;;;;6340614;22;19997;-89
2021/01/19 00:07:16;;;;;;;39.58;10.93;;;27.00;78.00;;;;;;6341495;22;19995;-91
2021/01/19 00:13:06;;;;;;;36.42;14.68;;;26.80;79.00;;;;;;6354510;22;20007;-90
2021/01/19 00:15:42;;;;;;;31.58;11.90;;;26.70;79.90;;;;;;6366313;22;20017;-90
2021/01/19 00:18:36;;;;;;;29.60;12.82;;;26.60;80.10;;;;;;6354662;22;20073;-90
2021/01/19 00:21:15;;;;;;;22.08;14.27;;;26.60;80.30;;;;;;6309691;22;20006;-90
2021/01/19 00:27:00;;;;;;;17.83;11.10;;;26.50;79.70;;;;;;6326555;22;20215;-89
2021/01/19 00:29:28;;;;;;;11.73;4.70;;;26.50;79.20;;;;;;6340567;22;20003;-90
2021/01/19 00:32:01;;;;;;;9.32;4.28;;;26.50;79.40;;;;;;6339688;22;20003;-90
2021/01/19 00:34:37;;;;;;;10.40;4.47;;;26.50;79.10;;;;;;6315459;22;19991;-90
2021/01/19 00:37:32;;;;;;;7.45;3.90;;;26.40;79.20;;;;;;6316039;22;21029;-89
2021/01/19 00:40:02;;;;;;;11.25;4.70;;;26.40;79.30;;;;;;6261553;22;20004;-91
2021/01/19 00:52:05;;;;;;;8.80;3.90;;;26.20;79.80;;;;;;6353612;22;20023;-89
2021/01/19 00:54:37;;;;;;;8.18;4.90;;;26.20;80.10;;;;;;6367273;22;19995;-89
2021/01/19 00:57:18;;;;;;;7.10;4.22;;;26.10;80.40;;;;;;6313962;22;20024;-89
2021/01/19 00:59:51;;;;;;;11.05;6.68;;;26.10;80.00;;;;;;6256200;22;20018;-91
2021/01/19 01:02:20;;;;;;;11.68;6.50;;;26.00;80.80;;;;;;6279692;22;20011;-88
2021/01/19 01:04:46;;;;;;;9.82;6.03;;;25.90;80.40;;;;;;6252740;22;20016;-90
2021/01/19 01:07:18;;;;;;;9.63;6.15;;;25.80;81.10;;;;;;6279485;22;20014;-89
2021/01/19 01:10:16;;;;;;;;;;;;;;;;;;;;;
2021/01/19 01:13:56;;;;;;;;;;;;;;;;;;;;;
2021/01/19 01:17:03;;;;;;;6.63;4.35;;;25.80;81.40;;;;;;6326519;22;20022;-88
2021/01/19 01:19:47;;;;;;;9.63;4.78;;;25.70;81.00;;;;;;6326790;22;20013;-91
2021/01/19 01:24:49;;;;;;;10.20;4.50;;;25.70;80.70;;;;;;6351454;22;20128;-88
2021/01/19 01:29:59;;;;;;;7.07;3.83;;;25.60;79.80;;;;;;6347214;22;20002;-91
2021/01/19 01:38:26;;;;;;;4.45;2.60;;;25.50;79.20;;;;;;5435537;22;20424285;-91
2021/01/19 01:41:32;;;;;;;9.88;4.00;;;25.50;79.50;;;;;;6342796;22;20026;-92
2021/01/19 01:44:22;;;;;;;6.47;3.45;;;25.50;79.10;;;;;;6354767;22;20052;-88
2021/01/19 01:49:58;;;;;;;6.82;3.08;;;25.40;79.10;;;;;;6357204;22;20223;-88
2021/01/19 01:52:32;;;;;;;4.35;3.28;;;25.40;78.70;;;;;;6343210;22;20005;-88
2021/01/19 01:55:02;;;;;;;7.43;3.75;;;25.30;78.90;;;;;;6308356;22;20018;-87
2021/01/19 01:57:57;;;;;;;7.53;4.05;;;25.30;78.80;;;;;;6342651;22;20003;-87
2021/01/19 02:00:35;;;;;;;5.80;4.30;;;25.30;78.80;;;;;;6340248;22;20003;-89
2021/01/19 02:03:30;;;;;;;7.45;4.57;;;25.30;78.50;;;;;;6297365;22;20027;-89
2021/01/19 02:06:40;;;;;;;6.20;3.90;;;25.20;78.70;;;;;;6305529;22;19992;-87
2021/01/19 02:15:26;;;;;;;4.47;3.10;;;25.00;77.10;;;;;;6290605;22;20227;-88
2021/01/19 02:22:07;;;;;;;3.90;2.67;;;24.90;76.50;;;;;;6313070;22;20014;-87
2021/01/19 02:28:10;;;;;;;12.55;4.57;;;24.80;76.50;;;;;;6320030;22;20007;-88
2021/01/19 02:30:55;;;;;;;7.80;5.07;;;24.80;77.20;;;;;;6257706;22;20018;-88
2021/01/19 02:36:51;;;;;;;5.93;3.92;;;24.70;77.30;;;;;;6306968;22;20010;-88
2021/01/19 03:02:02;;;;;;;12.05;7.50;;;24.50;74.10;;;;;;6360113;22;20006;-89
2021/01/19 03:04:47;;;;;;;;;;;;;;;;;;;;;
2021/01/19 03:07:48;;;;;;;13.57;9.00;;;24.40;74.10;;;;;;6299729;22;20007;-88
2021/01/19 03:10:24;;;;;;;9.50;6.22;;;24.40;74.20;;;;;;6313060;22;20003;-92
2021/01/19 03:21:11;;;;;;;5.00;2.47;;;24.30;73.40;;;;;;6285046;22;20003;-90
2021/01/19 03:23:39;;;;;;;3.92;2.55;;;24.30;72.70;;;;;;6287804;22;20335;-89
2021/01/19 03:26:18;;;;;;;4.47;2.42;;;24.30;73.20;;;;;;6301776;22;20018;-89
2021/01/19 03:28:45;;;;;;;6.38;2.45;;;24.20;73.10;;;;;;6365411;22;20010;-89
2021/01/19 03:31:45;;;;;;;3.05;2.35;;;24.20;73.40;;;;;;6384954;22;19987;-89
2021/01/19 03:34:13;;;;;;;3.90;2.15;;;24.20;73.40;;;;;;6367055;22;20015;-89
2021/01/19 03:36:47;;;;;;;3.55;2.38;;;24.20;73.30;;;;;;6392732;22;20068;-89
2021/01/19 03:42:21;;;;;;;3.53;2.28;;;24.20;73.10;;;;;;6317651;22;20175;-92
2021/01/19 03:44:52;;;;;;;3.70;2.05;;;24.10;73.10;;;;;;6302623;22;20022;-90
2021/01/19 03:47:21;;;;;;;2.65;2.00;;;24.10;73.00;;;;;;6278445;22;20015;-91
2021/01/19 03:49:49;;;;;;;4.50;2.05;;;24.10;72.50;;;;;;6333061;22;20019;-92
2021/01/19 03:52:16;;;;;;;3.83;1.90;;;24.10;72.90;;;;;;6340822;22;19999;-90
2021/01/19 03:54:50;;;;;;;4.60;2.20;;;24.10;73.20;;;;;;6367547;22;19986;-90
2021/01/19 03:57:18;;;;;;;5.45;2.30;;;24.10;73.40;;;;;;6342592;22;20014;-90
2021/01/19 03:59:44;;;;;;;3.05;1.98;;;24.00;73.10;;;;;;6365939;22;20018;-92
2021/01/19 04:05:08;;;;;;;5.90;2.25;;;24.00;72.80;;;;;;6317631;22;20721;-91
2021/01/19 04:07:53;;;;;;;4.25;1.95;;;23.90;72.10;;;;;;6307580;22;20023;-91
2021/01/19 04:10:27;;;;;;;3.72;2.10;;;23.90;72.50;;;;;;6309268;22;20048;-92
2021/01/19 04:12:58;;;;;;;3.45;2.75;;;23.90;72.00;;;;;;6333930;22;20002;-92
2021/01/19 04:15:26;;;;;;;5.00;2.03;;;23.90;73.00;;;;;;6308282;22;20003;-92
2021/01/19 04:21:09;;;;;;;2.65;1.67;;;23.80;71.40;;;;;;6304465;22;20026;-88
2021/01/19 04:23:37;;;;;;;4.07;1.83;;;23.80;71.40;;;;;;6277840;22;20015;-88
2021/01/19 04:26:06;;;;;;;3.08;1.70;;;23.80;71.30;;;;;;6304812;22;19987;-90
2021/01/19 04:28:32;;;;;;;3.58;2.20;;;23.80;71.30;;;;;;6278418;22;20070;-91
2021/01/19 04:33:44;;;;;;;3.72;1.70;;;23.70;71.60;;;;;;6366140;22;20090;-92
2021/01/19 04:36:13;;;;;;;3.97;1.67;;;23.70;71.80;;;;;;6366596;22;20041;-90
2021/01/19 04:39:09;;;;;;;4.03;1.70;;;23.70;71.30;;;;;;6340647;22;20002;-88
2021/01/19 04:41:56;;;;;;;3.22;1.80;;;23.70;70.90;;;;;;6373382;22;20022;-91
2021/01/19 04:44:26;;;;;;;2.83;2.15;;;23.70;70.70;;;;;;6366041;22;20011;-89
2021/01/19 04:46:53;;;;;;;2.53;1.63;;;23.60;71.40;;;;;;6367237;22;19998;-91
2021/01/19 04:49:21;;;;;;;2.58;1.65;;;23.60;72.30;;;;;;6341726;22;19986;-92
2021/01/19 04:52:17;;;;;;;3.00;2.00;;;23.60;71.20;;;;;;6368547;22;20025;-92
2021/01/19 04:55:11;;;;;;;3.15;1.58;;;23.60;71.80;;;;;;6368698;22;20026;-90
2021/01/19 04:58:09;;;;;;;3.27;2.20;;;23.60;72.00;;;;;;6366857;22;20108;-90
2021/01/19 05:00:37;;;;;;;2.63;1.75;;;23.60;71.50;;;;;;6329157;22;20263;-92
2021/01/19 05:03:19;;;;;;;3.67;1.55;;;23.50;72.60;;;;;;6367529;22;19995;-90
2021/01/19 05:06:00;;;;;;;3.28;1.98;;;23.40;72.90;;;;;;6368838;22;19998;-88
2021/01/19 05:11:24;;;;;;;2.28;1.50;;;23.30;73.50;;;;;;6337081;22;19999;-89
2021/01/19 05:13:59;;;;;;;4.55;1.75;;;23.40;73.20;;;;;;6312793;22;19995;-90
2021/01/19 05:16:37;;;;;;;2.30;1.63;;;23.40;72.90;;;;;;6337916;22;20038;-90
2021/01/19 05:19:05;;;;;;;2.33;1.55;;;23.40;73.40;;;;;;6304404;22;20019;-90
2021/01/19 05:21:39;;;;;;;1.60;1.50;;;23.40;73.40;;;;;;6311509;22;19997;-88
2021/01/19 05:24:07;;;;;;;2.92;1.75;;;23.40;73.40;;;;;;6311343;22;19999;-89
2021/01/19 05:26:34;;;;;;;3.08;1.80;;;23.40;73.60;;;;;;6311539;22;20047;-88
2021/01/19 05:29:07;;;;;;;3.67;1.90;;;23.40;73.70;;;;;;6310900;22;20015;-89
2021/01/19 05:31:36;;;;;;;3.22;1.88;;;23.40;73.50;;;;;;6311476;22;19995;-90
2021/01/19 05:34:09;;;;;;;2.83;1.73;;;23.40;74.00;;;;;;6260788;22;19996;-90
2021/01/19 05:36:48;;;;;;;2.42;1.70;;;23.30;74.20;;;;;;6311429;22;19991;-88
2021/01/19 05:39:23;;;;;;;4.13;1.70;;;23.30;74.30;;;;;;6311117;22;20026;-89
2021/01/19 05:41:52;;;;;;;3.15;2.08;;;23.40;74.30;;;;;;6302939;22;20942;-89
2021/01/19 05:44:28;;;;;;;2.95;1.75;;;23.30;74.80;;;;;;6337707;22;20045;-89
2021/01/19 05:47:04;;;;;;;3.17;1.90;;;23.30;74.90;;;;;;6311278;22;20017;-91
2021/01/19 05:49:42;;;;;;;4.15;2.25;;;23.30;75.10;;;;;;6311152;22;19995;-88
2021/01/19 05:52:13;;;;;;;3.33;2.05;;;23.30;75.50;;;;;;6350064;22;20067;-89
2021/01/19 05:54:41;;;;;;;3.83;2.47;;;23.30;75.30;;;;;;6318562;22;19994;-89
2021/01/19 05:57:13;;;;;;;2.47;1.95;;;23.20;74.70;;;;;;6343287;22;20002;-88
2021/01/19 05:59:46;;;;;;;2.65;1.98;;;23.20;75.20;;;;;;6338591;22;20010;-89
2021/01/19 06:02:17;;;;;;;7.32;2.20;;;23.20;75.00;;;;;;6369183;22;19995;-89
2021/01/19 06:04:49;;;;;;;4.28;2.17;;;23.20;74.60;;;;;;6368340;22;20047;-87
2021/01/19 06:07:19;;;;;;;7.35;2.53;;;23.20;75.40;;;;;;6368189;22;20010;-87
2021/01/19 06:09:50;;;;;;;3.83;2.70;;;23.10;75.50;;;;;;6367521;22;20003;-88
2021/01/19 06:12:18;;;;;;;5.50;3.78;;;23.10;75.10;;;;;;6368282;22;20035;-88
2021/01/19 06:14:50;;;;;;;6.45;5.78;;;23.10;74.60;;;;;;6342173;22;20003;-88
2021/01/19 06:17:22;;;;;;;8.17;6.60;;;23.10;73.90;;;;;;6368250;22;19995;-88
2021/01/19 06:19:51;;;;;;;10.55;6.93;;;23.10;73.60;;;;;;6368841;22;19983;-88
2021/01/19 06:22:25;;;;;;;9.82;6.65;;;23.10;74.90;;;;;;6367837;22;20035;-88
2021/01/19 06:24:53;;;;;;;9.35;6.00;;;23.10;73.90;;;;;;6367927;22;20023;-88
2021/01/19 06:27:23;;;;;;;6.45;5.43;;;23.10;73.80;;;;;;6368015;22;19998;-88
2021/01/19 06:29:59;;;;;;;6.85;5.28;;;23.00;75.00;;;;;;6368960;22;19998;-87
2021/01/19 06:32:27;;;;;;;6.32;4.88;;;22.90;75.60;;;;;;6393927;22;20006;-90
2021/01/19 06:35:17;;;;;;;5.30;3.53;;;22.90;75.30;;;;;;6351615;22;20007;-88
2021/01/19 06:37:45;;;;;;;4.60;3.58;;;22.80;74.40;;;;;;6274016;22;20032;-88
2021/01/19 06:40:15;;;;;;;5.13;3.10;;;22.80;74.80;;;;;;6298781;22;20010;-88
2021/01/19 06:42:47;;;;;;;6.32;2.75;;;22.80;75.10;;;;;;6368624;22;19987;-88
2021/01/19 06:45:23;;;;;;;3.13;2.67;;;22.70;75.10;;;;;;6350909;22;20008;-88
2021/01/19 06:47:53;;;;;;;5.57;2.53;;;22.70;74.50;;;;;;6337395;22;20225;-89
2021/01/19 06:50:24;;;;;;;4.38;2.50;;;22.80;74.80;;;;;;6336397;22;20017;-88
2021/01/19 06:53:17;;;;;;;3.47;2.30;;;22.70;75.20;;;;;;6337410;22;20002;-88
2021/01/19 06:56:05;;;;;;;4.55;2.20;;;22.70;75.70;;;;;;6289839;22;20000;-87
2021/01/19 06:58:56;;;;;;;6.72;2.10;;;22.70;76.10;;;;;;6337035;22;20019;-88
2021/01/19 07:01:28;;;;;;;3.00;1.98;;;22.60;77.00;;;;;;6337419;22;20012;-88
2021/01/19 07:04:23;;;;;;;2.47;1.83;;;22.60;77.30;;;;;;6336518;22;20058;-87
2021/01/19 07:07:07;;;;;;;3.13;1.90;;;22.50;76.30;;;;;;6337320;22;19988;-87
2021/01/19 07:09:49;;;;;;;1.80;1.35;;;22.50;76.20;;;;;;6336224;22;20003;-88
2021/01/19 07:12:21;;;;;;;4.60;1.70;;;22.50;75.90;;;;;;6336792;22;19992;-88
2021/01/19 07:15:19;;;;;;;2.58;1.67;;;22.50;75.50;;;;;;6336316;22;19996;-87
2021/01/19 07:18:18;;;;;;;3.13;1.85;;;22.50;75.40;;;;;;6318776;22;20007;-89
2021/01/19 07:21:05;;;;;;;2.67;1.60;;;22.40;74.70;;;;;;6336322;22;19996;-89
2021/01/19 07:23:46;;;;;;;3.58;1.70;;;22.40;74.70;;;;;;6336730;22;19983;-88
2021/01/19 07:26:19;;;;;;;2.72;1.60;;;22.50;74.80;;;;;;6336365;22;20000;-88
2021/01/19 07:28:50;;;;;;;1.90;1.42;;;22.60;74.70;;;;;;6336158;22;21133;-88
2021/01/19 07:31:21;;;;;;;3.30;1.80;;;22.60;74.50;;;;;;6337100;22;19984;-88
2021/01/19 07:33:57;;;;;;;4.65;1.98;;;22.50;74.60;;;;;;6336934;22;20021;-88
2021/01/19 07:36:26;;;;;;;2.67;1.55;;;22.60;75.10;;;;;;6336046;22;20062;-92
2021/01/19 07:38:53;;;;;;;3.88;2.10;;;22.50;74.90;;;;;;6335964;22;20014;-90
2021/01/19 07:41:31;;;;;;;3.83;1.90;;;22.50;75.40;;;;;;6335314;22;19992;-91
2021/01/19 07:44:04;;;;;;;2.05;1.70;;;22.50;75.40;;;;;;6336949;22;20015;-89
2021/01/19 07:49:11;;;;;;;3.45;1.60;;;22.60;75.50;;;;;;6362191;22;19911;-92
2021/01/19 07:52:07;;;;;;;3.53;1.88;;;22.60;74.70;;;;;;6334216;22;20006;-92
2021/01/19 07:54:35;;;;;;;4.88;1.50;;;22.70;74.80;;;;;;6332278;22;19998;-91
2021/01/19 07:57:13;;;;;;;2.10;1.60;;;22.70;75.10;;;;;;6334495;22;20058;-93
2021/01/19 07:59:43;;;;;;;3.30;2.20;;;22.70;75.00;;;;;;6334344;22;19994;-92
2021/01/19 08:02:22;;;;;;;3.13;1.73;;;22.80;74.90;;;;;;6334465;22;20002;-92
2021/01/19 08:05:05;;;;;;;1.73;1.40;;;22.80;74.30;;;;;;6335467;22;19995;-91
2021/01/19 08:07:39;;;;;;;2.55;1.83;;;22.80;73.50;;;;;;6335418;22;20191;-92
2021/01/19 08:10:26;;;;;;;2.90;1.77;;;22.80;72.70;;;;;;6334409;22;20002;-91
2021/01/19 08:12:55;;;;;;;3.65;1.55;;;23.00;71.20;;;;;;6361589;22;20001;-90
2021/01/19 08:15:33;;;;;;;2.53;1.77;;;23.10;70.50;;;;;;6341315;22;19995;-89
2021/01/19 08:18:47;;;;;;;2.28;1.33;;;23.10;70.60;;;;;;6367151;22;20022;-88
2021/01/19 08:21:14;;;;;;;2.13;1.65;;;23.20;71.50;;;;;;6341412;22;20007;-89
2021/01/19 08:23:41;;;;;;;2.55;1.63;;;23.20;71.30;;;;;;6341018;22;19991;-87
2021/01/19 08:26:11;;;;;;;4.95;2.03;;;23.20;71.80;;;;;;6368185;22;19993;-87
2021/01/19 08:28:38;;;;;;;3.38;1.73;;;23.30;72.00;;;;;;6340842;22;20015;-88
2021/01/19 08:31:17;;;;;;;2.03;1.48;;;23.40;71.90;;;;;;6368322;22;20039;-88
2021/01/19 08:33:50;;;;;;;4.45;1.70;;;23.50;71.50;;;;;;6367281;22;19998;-88
2021/01/19 08:36:19;;;;;;;2.80;1.80;;;23.50;71.50;;;;;;6368154;22;19999;-87
2021/01/19 08:38:47;;;;;;;1.90;1.65;;;23.50;71.60;;;;;;6341194;22;20030;-88
2021/01/19 08:41:18;;;;;;;3.05;1.83;;;23.60;71.30;;;;;;6368047;22;19991;-86
2021/01/19 08:43:52;;;;;;;2.28;1.48;;;23.60;70.90;;;;;;6340293;22;19991;-88
2021/01/19 08:46:20;;;;;;;2.58;1.80;;;23.60;70.70;;;;;;6337328;22;19999;-87
2021/01/19 08:48:49;;;;;;;5.07;1.55;;;23.60;70.60;;;;;;6366425;22;20003;-91
2021/01/19 08:51:27;;;;;;;3.28;1.75;;;23.60;70.40;;;;;;6340522;22;20015;-91
2021/01/19 08:53:54;;;;;;;4.45;1.92;;;23.60;70.50;;;;;;6340458;22;20050;-88
2021/01/19 08:56:26;;;;;;;2.65;1.63;;;23.50;70.90;;;;;;6361966;22;19999;-91
2021/01/19 08:58:53;;;;;;;2.50;1.55;;;23.50;71.40;;;;;;6327821;22;20205;-92
2021/01/19 09:01:20;;;;;;;5.57;1.60;;;23.50;71.50;;;;;;6330394;22;19983;-87
2021/01/19 09:04:02;;;;;;;2.80;1.17;;;23.40;71.50;;;;;;6329383;22;20002;-87
2021/01/19 09:06:29;;;;;;;2.42;1.27;;;23.40;71.20;;;;;;6358120;22;19999;-93
2021/01/19 09:08:59;;;;;;;2.53;1.35;;;23.40;70.60;;;;;;6356175;22;19999;-93
2021/01/19 09:11:32;;;;;;;2.75;1.50;;;23.40;69.30;;;;;;6329801;22;19998;-92
2021/01/19 09:14:09;;;;;;;3.85;1.23;;;23.40;68.70;;;;;;6330555;22;20022;-93
2021/01/19 09:16:37;;;;;;;3.42;1.45;;;23.40;68.20;;;;;;6325247;22;19997;-93
2021/01/19 09:19:08;;;;;;;3.50;1.77;;;23.40;68.90;;;;;;6324514;22;20022;-92
2021/01/19 09:21:38;;;;;;;3.20;1.42;;;23.40;70.10;;;;;;6345508;22;20275;-91
2021/01/19 09:24:13;;;;;;;5.15;2.00;;;23.30;70.60;;;;;;6350684;22;20049;-92
2021/01/19 09:27:02;;;;;;;2.97;1.60;;;23.30;71.10;;;;;;6326617;22;20037;-92
2021/01/19 09:29:31;;;;;;;2.05;1.35;;;23.30;70.10;;;;;;6341547;22;20001;-91
2021/01/19 09:32:01;;;;;;;3.17;1.48;;;23.30;69.80;;;;;;6326137;22;20010;-93
2021/01/19 09:34:30;;;;;;;1.60;1.13;;;23.30;69.20;;;;;;6324324;22;20040;-92
2021/01/19 09:36:57;;;;;;;3.60;1.13;;;23.30;68.80;;;;;;6324370;22;20103;-92
2021/01/19 09:39:29;;;;;;;3.17;1.27;;;23.40;66.70;;;;;;6328461;22;20050;-91
2021/01/19 09:41:58;;;;;;;5.20;1.50;;;23.50;66.70;;;;;;6324296;22;19999;-92
2021/01/19 09:44:26;;;;;;;2.72;1.55;;;23.50;65.70;;;;;;6352068;22;19991;-93
2021/01/19 09:47:00;;;;;;;2.72;1.55;;;23.60;65.50;;;;;;6324515;22;19990;-92
2021/01/19 09:49:28;;;;;;;2.88;1.30;;;23.60;64.90;;;;;;6347874;22;20306;-92
2021/01/19 09:51:54;;;;;;;1.85;1.20;;;23.60;64.10;;;;;;6353439;22;20025;-92
2021/01/19 09:54:24;;;;;;;2.60;1.35;;;23.70;64.30;;;;;;6351188;22;19998;-93
2021/01/19 09:56:58;;;;;;;4.57;1.20;;;23.70;63.60;;;;;;6351988;22;20028;-93
2021/01/19 09:59:30;;;;;;;5.93;1.30;;;23.70;63.40;;;;;;6351846;22;19999;-94
2021/01/19 10:02:01;;;;;;;3.90;1.50;;;23.70;63.90;;;;;;6352186;22;19998;-92
2021/01/19 10:04:29;;;;;;;3.60;1.40;;;23.70;64.00;;;;;;6351287;22;20267;-93
2021/01/19 10:07:02;;;;;;;2.85;1.65;;;23.70;66.00;;;;;;6351192;22;19995;-91
2021/01/19 10:09:28;;;;;;;2.25;1.50;;;23.70;67.10;;;;;;6352215;22;19991;-93
2021/01/19 10:12:00;;;;;;;2.55;1.48;;;23.70;67.10;;;;;;6353150;22;20040;-91
2021/01/19 10:14:32;;;;;;;2.92;1.80;;;23.80;67.70;;;;;;6355875;22;20002;-91
2021/01/19 10:16:59;;;;;;;;;;;23.70;67.90;;;;;;6351075;22;19991;-93
2021/01/19 10:19:30;;;;;;;2.60;1.77;;;23.70;68.80;;;;;;6351149;22;20144;-93
2021/01/19 10:22:05;;;;;;;5.03;1.83;;;23.70;69.40;;;;;;6350206;22;20138;-92
2021/01/19 10:24:33;;;;;;;3.95;1.85;;;23.70;70.20;;;;;;6350231;22;20062;-93
2021/01/19 10:27:10;;;;;;;5.40;1.80;;;23.70;69.60;;;;;;6350196;22;19995;-92
2021/01/19 10:29:41;;;;;;;4.20;2.00;;;23.70;69.20;;;;;;6350311;22;20002;-93
2021/01/19 10:32:13;;;;;;;5.95;1.88;;;23.70;69.50;;;;;;6349822;22;19994;-93
2021/01/19 10:34:51;;;;;;;4.10;1.93;;;23.70;69.50;;;;;;6351876;22;20009;-92
2021/01/19 10:37:18;;;;;;;3.97;2.65;;;23.80;69.60;;;;;;6352481;22;20001;-93
2021/01/19 10:39:56;;;;;;;5.13;1.92;;;23.70;69.70;;;;;;6354116;22;20054;-90
2021/01/19 10:42:28;;;;;;;4.82;1.98;;;23.70;70.00;;;;;;6355325;22;20003;-91
2021/01/19 10:45:00;;;;;;;2.05;1.75;;;23.70;70.40;;;;;;6356044;22;20058;-89
2021/01/19 10:47:28;;;;;;;3.67;2.27;;;23.60;70.30;;;;;;6355493;22;19998;-89
2021/01/19 10:49:55;;;;;;;4.25;2.00;;;23.60;70.90;;;;;;6325485;22;20355;-90
2021/01/19 10:52:22;;;;;;;3.58;2.03;;;23.60;71.60;;;;;;6325681;22;19997;-90
2021/01/19 10:54:50;;;;;;;4.50;2.58;;;23.60;72.00;;;;;;6355138;22;20003;-94
2021/01/19 10:57:20;;;;;;;4.28;2.38;;;23.60;73.00;;;;;;6325341;22;20039;-93
2021/01/19 10:59:46;;;;;;;4.25;2.10;;;23.60;73.40;;;;;;6328657;22;20001;-93
2021/01/19 11:02:16;;;;;;;6.05;2.42;;;23.60;74.00;;;;;;6327613;22;20010;-95
2021/01/19 11:04:43;;;;;;;2.72;1.92;;;23.60;74.30;;;;;;6302365;22;19998;-94
2021/01/19 11:07:09;;;;;;;6.32;2.30;;;23.50;74.70;;;;;;6326396;22;19994;-95
2021/01/19 11:09:36;;;;;;;4.82;2.03;;;23.50;74.80;;;;;;6324825;22;19990;-93
2021/01/19 11:12:03;;;;;;;4.07;2.13;;;23.50;75.30;;;;;;6356081;22;19994;-93
2021/01/19 11:14:30;;;;;;;2.20;2.00;;;23.40;75.50;;;;;;6331753;22;20059;-92
2021/01/19 11:16:56;;;;;;;4.28;2.20;;;23.40;75.30;;;;;;6361175;22;19991;-92
2021/01/19 11:19:23;;;;;;;4.65;2.00;;;23.40;75.20;;;;;;6333308;22;20026;-92
2021/01/19 11:25:43;;;;;;;4.47;2.03;;;23.50;74.80;;;;;;6357250;22;20284;-94
2021/01/19 11:28:14;;;;;;;5.28;1.88;;;23.50;74.40;;;;;;6357654;22;19995;-95
2021/01/19 11:30:43;;;;;;;5.95;2.30;;;23.60;74.90;;;;;;6333231;22;20014;-95
2021/01/19 11:33:13;;;;;;;4.80;1.90;;;23.60;75.20;;;;;;6335383;22;20085;-91
2021/01/19 11:35:39;;;;;;;3.40;2.30;;;23.60;74.60;;;;;;6339652;22;19995;-93
2021/01/19 11:38:06;;;;;;;2.70;1.80;;;23.60;74.20;;;;;;6331301;22;19995;-92
2021/01/19 11:43:17;;;;;;;5.82;1.85;;;23.70;72.20;;;;;;6319907;22;20026;-92
2021/01/19 11:45:44;;;;;;;6.43;2.00;;;23.80;71.70;;;;;;6326475;22;20015;-94
2021/01/19 11:48:14;;;;;;;3.75;1.85;;;23.80;71.90;;;;;;6363483;22;19999;-91
2021/01/19 11:50:41;;;;;;;6.57;2.53;;;23.90;71.00;;;;;;6360516;22;20010;-89
2021/01/19 11:53:10;;;;;;;3.88;2.38;;;24.00;70.50;;;;;;6334285;22;20054;-91
2021/01/19 11:55:49;;;;;;;5.60;2.30;;;24.20;70.40;;;;;;6360491;22;20001;-93
2021/01/19 12:02:21;;;;;;;5.10;2.45;;;24.60;70.20;;;;;;6332310;22;20010;-87
2021/01/19 12:04:48;;;;;;;5.95;2.22;;;24.70;70.20;;;;;;6307775;22;20009;-91
2021/01/19 12:07:24;;;;;;;5.05;2.13;;;24.70;69.40;;;;;;6354718;22;19994;-92
2021/01/19 12:13:56;;;;;;;4.60;2.20;;;24.80;69.30;;;;;;6350419;22;19998;-93
2021/01/19 12:16:27;;;;;;;6.22;2.25;;;24.90;68.90;;;;;;6323040;22;20014;-91
2021/01/19 12:18:53;;;;;;;5.05;1.80;;;24.90;69.30;;;;;;6324805;22;20159;-90
2021/01/19 12:21:20;;;;;;;3.08;1.77;;;24.90;68.40;;;;;;6350457;22;19991;-90
2021/01/19 12:23:47;;;;;;;2.92;1.90;;;24.80;68.40;;;;;;6322427;22;20057;-91
2021/01/19 12:26:17;;;;;;;5.32;2.03;;;24.90;69.00;;;;;;6353047;22;19991;-91
2021/01/19 12:28:44;;;;;;;3.67;1.60;;;24.90;69.50;;;;;;6324900;22;19998;-91
2021/01/19 12:31:11;;;;;;;5.05;1.70;;;25.00;68.40;;;;;;6322715;22;20044;-91
2021/01/19 12:33:39;;;;;;;3.92;1.90;;;25.00;68.20;;;;;;6322365;22;20005;-90
2021/01/19 12:36:09;;;;;;;7.13;2.20;;;25.10;68.40;;;;;;6350237;22;20054;-91
2021/01/19 12:38:36;;;;;;;2.13;1.70;;;25.10;68.20;;;;;;6323523;22;19999;-91
2021/01/19 12:41:03;;;;;;;2.13;1.80;;;25.30;67.80;;;;;;6351376;22;19987;-92
2021/01/19 12:43:30;;;;;;;2.78;2.05;;;25.50;67.50;;;;;;6323127;22;20050;-91
2021/01/19 12:45:57;;;;;;;3.88;2.33;;;25.70;68.30;;;;;;6356173;22;20074;-90
2021/01/19 12:48:28;;;;;;;5.43;2.10;;;25.80;68.20;;;;;;6360345;22;20165;-91
2021/01/19 12:51:24;;;;;;;7.65;1.90;;;25.80;67.40;;;;;;6355696;22;20007;-93
2021/01/19 12:53:53;;;;;;;4.80;2.47;;;25.80;67.60;;;;;;6288462;22;20031;-91
2021/01/19 12:56:21;;;;;;;3.85;1.75;;;25.80;67.40;;;;;;6262272;22;20103;-92
2021/01/19 12:58:48;;;;;;;2.08;1.65;;;25.70;67.60;;;;;;6287915;22;20074;-90
2021/01/19 13:01:15;;;;;;;5.45;1.63;;;25.70;66.90;;;;;;6269443;22;20210;-92
2021/01/19 13:03:43;;;;;;;3.30;2.13;;;25.70;67.70;;;;;;6268133;22;20042;-92
2021/01/19 13:06:22;;;;;;;7.00;2.65;;;25.80;68.00;;;;;;6270427;22;19995;-89
2021/01/19 13:08:49;;;;;;;10.48;3.53;;;25.80;68.60;;;;;;6265599;22;20004;-92
2021/01/19 13:11:19;;;;;;;7.15;2.65;;;26.00;69.30;;;;;;6263230;22;19999;-92
2021/01/19 13:13:58;;;;;;;6.72;3.08;;;26.20;66.90;;;;;;6265327;22;20030;-93
2021/01/19 13:16:41;;;;;;;4.78;2.10;;;26.30;65.10;;;;;;6244954;22;19999;-89
2021/01/19 13:19:11;;;;;;;6.97;2.35;;;27.10;64.40;;;;;;6268894;22;20030;-91
2021/01/19 13:21:40;;;;;;;5.53;3.30;;;27.70;62.70;;;;;;6265255;22;20099;-93
2021/01/19 13:24:24;;;;;;;7.22;3.30;;;28.10;63.10;;;;;;6336072;22;20017;-93
2021/01/19 13:26:51;;;;;;;4.22;1.98;;;28.70;60.50;;;;;;6330767;22;20242;-92
2021/01/19 13:29:18;;;;;;;1.60;1.30;;;28.70;59.30;;;;;;6302505;22;20010;-92
2021/01/19 13:31:45;;;;;;;3.42;1.77;;;28.40;58.30;;;;;;6326883;22;19999;-93
2021/01/19 13:34:25;;;;;;;4.50;2.05;;;28.20;57.10;;;;;;6356613;22;19986;-94
2021/01/19 13:37:13;;;;;;;3.88;1.60;;;27.80;57.90;;;;;;6294129;22;20011;-92
2021/01/19 13:39:49;;;;;;;3.83;1.83;;;27.30;58.00;;;;;;6349995;22;19998;-93
2021/01/19 13:42:15;;;;;;;5.60;1.67;;;27.00;58.90;;;;;;6326878;22;20049;-92
2021/01/19 13:48:10;;;;;;;6.97;1.88;;;26.50;59.60;;;;;;6277808;22;20079;-93
2021/01/19 13:50:40;;;;;;;4.05;1.50;;;26.60;59.40;;;;;;6325891;22;20034;-93
2021/01/19 13:53:09;;;;;;;3.38;1.92;;;26.60;59.70;;;;;;6351363;22;20023;-90
2021/01/19 13:55:40;;;;;;;2.08;1.60;;;26.70;59.60;;;;;;6352677;22;20310;-91
2021/01/19 13:58:13;;;;;;;4.60;1.60;;;26.90;59.90;;;;;;6354041;22;19991;-93
2021/01/19 14:00:56;;;;;;;3.88;2.05;;;27.00;60.80;;;;;;6352203;22;19998;-92
2021/01/19 14:03:36;;;;;;;3.33;1.98;;;26.90;63.20;;;;;;6354794;22;19998;-91
2021/01/19 14:06:19;;;;;;;4.68;2.55;;;26.80;64.50;;;;;;6325721;22;20003;-92
2021/01/19 14:08:51;;;;;;;4.30;2.20;;;26.80;65.50;;;;;;6352651;22;19998;-92
2021/01/19 14:11:25;;;;;;;4.63;2.25;;;26.70;65.30;;;;;;6298139;22;20010;-92
2021/01/19 14:14:05;;;;;;;3.55;2.25;;;27.20;65.20;;;;;;6351237;22;20001;-93
2021/01/19 14:17:00;;;;;;;8.15;2.40;;;27.80;63.50;;;;;;6306522;22;20037;-94
2021/01/19 14:19:42;;;;;;;5.13;2.03;;;28.20;62.20;;;;;;6358365;22;20043;-93
2021/01/19 14:22:21;;;;;;;5.57;2.20;;;28.50;62.00;;;;;;6329622;22;19998;-93
2021/01/19 14:25:13;;;;;;;5.20;2.13;;;29.00;61.00;;;;;;6290356;22;20055;-95
2021/01/19 14:28:32;;;;;;;5.63;2.50;;;29.30;60.20;;;;;;6239310;22;20019;-96
2021/01/19 14:31:01;;;;;;;4.50;2.43;;;29.70;59.90;;;;;;6142948;23;20006;-93
2021/01/19 14:33:35;;;;;;;6.30;2.90;;;30.10;59.80;;;;;;6144773;23;19990;-94
2021/01/19 14:36:07;;;;;;;4.80;2.33;;;30.40;59.40;;;;;;6116451;23;20025;-95
2021/01/19 14:38:35;;;;;;;4.70;2.58;;;30.80;58.70;;;;;;6144842;23;20008;-94
2021/01/19 14:41:06;;;;;;;7.43;2.95;;;30.80;59.10;;;;;;6207025;23;19992;-91
2021/01/19 14:43:36;;;;;;;4.18;2.47;;;31.50;59.40;;;;;;6211889;23;20010;-94
2021/01/19 14:46:06;;;;;;;4.28;2.15;;;31.50;58.70;;;;;;6205323;23;20005;-96
2021/01/19 14:48:35;;;;;;;5.97;2.58;;;31.90;57.70;;;;;;6205029;23;20037;-93
2021/01/19 14:51:02;;;;;;;3.85;3.22;;;31.70;57.70;;;;;;6231296;23;20055;-93
2021/01/19 14:53:28;;;;;;;5.72;3.20;;;30.90;58.40;;;;;;6207277;23;20000;-93
2021/01/19 14:55:58;;;;;;;8.50;3.30;;;30.70;59.50;;;;;;6232158;23;20011;-93
2021/01/19 14:58:55;;;;;;;4.55;2.67;;;30.50;60.90;;;;;;6234229;22;20000;-91
2021/01/19 15:01:32;;;;;;;5.88;3.40;;;30.50;61.80;;;;;;6274189;22;20018;-92
2021/01/19 15:04:02;;;;;;;5.07;2.92;;;31.30;60.60;;;;;;6327648;22;19991;-93
2021/01/19 15:06:56;;;;;;;6.88;2.70;;;31.70;59.60;;;;;;6329890;22;19991;-92
2021/01/19 15:09:38;;;;;;;5.35;2.55;;;32.10;59.20;;;;;;6330770;22;20014;-95
2021/01/19 15:12:11;;;;;;;3.30;2.50;;;32.20;58.20;;;;;;6305884;22;20017;-94
2021/01/19 15:15:01;;;;;;;4.47;2.97;;;32.70;59.00;;;;;;6328706;22;20017;-93
2021/01/19 15:20:30;;;;;;;4.55;2.72;;;32.60;57.10;;;;;;6269719;22;20099;-95
2021/01/19 15:22:57;;;;;;;5.93;2.67;;;32.40;57.60;;;;;;6269271;22;20027;-94
2021/01/19 15:28:26;;;;;;;5.47;2.92;;;33.00;57.80;;;;;;6220544;22;20012;-94